Time;durP1;ratioP1;P1;durP2;ratioP2;P2;SDS_P1;SDS_P2;PMS_P1;PMS_P2;Temp;Humidity;BMP_temperature;BMP_pressure;BME280_temperature;BME280_humidity;BME280_pressure;Samples;Min_cycle;Max_cycle;Signal;HPM_P1;HPM_P2
2022/06/03 00:01:36;;;;;;;6.80;6.13;;;16.30;90.80;;;;;;5071085;28;20185;-65
2022/06/03 00:04:22;;;;;;;6.27;5.67;;;16.30;90.80;;;;;;5061345;28;20212;-65
2022/06/03 00:07:12;;;;;;;7.30;6.43;;;16.30;90.80;;;;;;5069267;28;20201;-64
2022/06/03 00:10:13;;;;;;;7.67;6.90;;;16.30;90.80;;;;;;5070047;28;20189;-63
2022/06/03 00:12:57;;;;;;;6.63;6.03;;;16.30;90.80;;;;;;4991028;28;20200;-63
2022/06/03 00:15:50;;;;;;;8.50;6.73;;;16.30;90.80;;;;;;5068834;28;20242;-63
2022/06/03 00:19:03;;;;;;;6.50;5.60;;;16.30;90.90;;;;;;5069884;28;20182;-63
2022/06/03 00:21:41;;;;;;;6.43;5.93;;;16.30;91.00;;;;;;5084400;28;20187;-63
2022/06/03 00:24:22;;;;;;;14.33;6.87;;;16.20;90.90;;;;;;5067225;28;20186;-63
2022/06/03 00:27:20;;;;;;;10.60;6.57;;;16.30;90.80;;;;;;5067186;28;20269;-63
2022/06/03 00:30:26;;;;;;;6.33;5.73;;;16.20;90.80;;;;;;5054746;28;20217;-64
2022/06/03 00:33:16;;;;;;;7.83;6.80;;;16.20;90.80;;;;;;5071923;28;20190;-65
2022/06/03 00:35:54;;;;;;;6.80;6.07;;;16.30;90.80;;;;;;5082216;28;20244;-65
2022/06/03 00:38:25;;;;;;;7.37;6.63;;;16.20;90.80;;;;;;5062543;28;20178;-65
2022/06/03 00:41:13;;;;;;;5.90;5.40;;;16.20;90.80;;;;;;5059811;28;20193;-64
2022/06/03 00:44:13;;;;;;;7.53;5.77;;;16.20;90.80;;;;;;5066692;28;20229;-64
2022/06/03 00:47:12;;;;;;;6.37;5.60;;;16.20;90.80;;;;;;5027730;28;20218;-64
2022/06/03 00:50:05;;;;;;;6.87;6.10;;;16.20;90.70;;;;;;5068216;28;20181;-63
2022/06/03 00:53:09;;;;;;;7.77;5.93;;;16.20;90.70;;;;;;5086334;28;20199;-63
2022/06/03 00:56:14;;;;;;;7.13;6.47;;;16.20;90.70;;;;;;5072422;28;20193;-65
2022/06/03 00:59:08;;;;;;;6.37;5.87;;;16.10;90.60;;;;;;5073010;28;20189;-64
2022/06/03 01:01:45;;;;;;;6.60;6.00;;;16.10;90.70;;;;;;5061199;28;20179;-64
2022/06/03 01:04:42;;;;;;;7.30;6.53;;;16.10;90.70;;;;;;5060752;28;20205;-64
2022/06/03 01:07:17;;;;;;;8.87;6.30;;;16.10;90.70;;;;;;5061883;28;20213;-63
2022/06/03 01:09:42;;;;;;;6.30;5.73;;;16.00;90.70;;;;;;5085145;28;20189;-63
2022/06/03 01:12:14;;;;;;;7.73;5.77;;;16.00;90.70;;;;;;5069939;28;20212;-63
2022/06/03 01:15:07;;;;;;;6.73;5.17;;;16.10;90.80;;;;;;5073092;28;20217;-63
2022/06/03 01:17:47;;;;;;;6.60;6.10;;;16.00;90.90;;;;;;5067105;28;20182;-63
2022/06/03 01:20:17;;;;;;;7.07;6.37;;;16.00;90.90;;;;;;5060302;28;20185;-63
2022/06/03 01:23:07;;;;;;;7.77;5.80;;;16.00;90.90;;;;;;5064883;28;20185;-64
2022/06/03 01:25:51;;;;;;;8.27;6.33;;;16.00;91.00;;;;;;5073794;28;20251;-64
2022/06/03 01:28:32;;;;;;;6.43;5.83;;;16.00;91.00;;;;;;5076004;28;20189;-64
2022/06/03 01:31:46;;;;;;;6.90;6.23;;;16.00;91.20;;;;;;5082423;28;20259;-64
2022/06/03 01:34:33;;;;;;;7.90;6.87;;;16.10;91.30;;;;;;5076192;28;20190;-64
2022/06/03 01:37:14;;;;;;;7.73;7.00;;;16.10;91.30;;;;;;5063528;28;20186;-64
2022/06/03 01:39:50;;;;;;;11.20;8.03;;;16.10;91.30;;;;;;5059439;28;20261;-64
2022/06/03 01:42:21;;;;;;;7.23;6.60;;;16.20;91.30;;;;;;5086073;28;20204;-64
2022/06/03 01:45:17;;;;;;;7.10;6.50;;;16.20;91.20;;;;;;5073061;28;20187;-63
2022/06/03 01:47:49;;;;;;;7.50;6.80;;;16.20;91.20;;;;;;5063335;28;20194;-64
2022/06/03 01:50:33;;;;;;;7.20;6.60;;;16.10;91.10;;;;;;5075103;28;20220;-63
2022/06/03 01:53:18;;;;;;;7.13;5.93;;;16.10;91.00;;;;;;5068404;28;20189;-63
2022/06/03 01:56:15;;;;;;;6.93;6.10;;;16.00;91.00;;;;;;5071830;28;20179;-63
2022/06/03 01:58:56;;;;;;;6.33;5.80;;;16.00;90.90;;;;;;5044297;28;20241;-63
2022/06/03 02:01:46;;;;;;;7.43;6.10;;;16.00;90.90;;;;;;5081303;28;20190;-62
2022/06/03 02:04:29;;;;;;;6.70;6.10;;;15.90;90.90;;;;;;5066939;28;20269;-62
2022/06/03 02:07:00;;;;;;;8.07;6.70;;;15.90;90.90;;;;;;5084516;28;20225;-62
2022/06/03 02:09:41;;;;;;;7.53;6.50;;;15.90;91.00;;;;;;5076794;28;20251;-62
2022/06/03 02:12:09;;;;;;;6.40;5.80;;;15.80;90.90;;;;;;5074644;28;20235;-62
2022/06/03 02:15:10;;;;;;;8.20;6.17;;;15.80;90.90;;;;;;5076108;28;20194;-62
2022/06/03 02:17:48;;;;;;;7.17;6.47;;;15.80;90.90;;;;;;5072427;28;20200;-62
2022/06/03 02:20:48;;;;;;;7.37;6.10;;;15.80;90.90;;;;;;5072735;28;20277;-62
2022/06/03 02:23:44;;;;;;;7.10;6.50;;;15.70;91.00;;;;;;5078846;28;20194;-62
2022/06/03 02:26:31;;;;;;;6.80;5.70;;;15.70;90.90;;;;;;5071546;28;20182;-62
2022/06/03 02:32:11;;;;;;;6.17;5.67;;;15.70;91.00;;;;;;5070332;28;20208;-62
2022/06/03 02:34:58;;;;;;;5.90;5.40;;;15.70;90.90;;;;;;5086858;28;20186;-62
2022/06/03 02:37:49;;;;;;;7.40;5.73;;;15.70;91.00;;;;;;5075945;28;20185;-62
2022/06/03 02:40:58;;;;;;;6.50;5.93;;;15.60;90.90;;;;;;5074799;28;20221;-62
2022/06/03 02:43:48;;;;;;;6.23;5.73;;;15.60;91.00;;;;;;5062990;28;20238;-62
2022/06/03 02:46:34;;;;;;;6.20;5.70;;;15.60;90.90;;;;;;5057311;28;20193;-62
2022/06/03 02:49:49;;;;;;;8.17;6.10;;;15.60;90.90;;;;;;5075180;28;20181;-62
2022/06/03 02:52:33;;;;;;;6.03;5.20;;;15.60;91.00;;;;;;4999388;28;20224;-62
2022/06/03 02:55:20;;;;;;;5.70;5.20;;;15.50;90.90;;;;;;5059249;28;20205;-62
2022/06/03 02:58:01;;;;;;;6.20;5.60;;;15.50;90.90;;;;;;5061289;28;20194;-63
2022/06/03 03:00:42;;;;;;;6.73;5.87;;;15.50;90.90;;;;;;5070380;28;20196;-63
2022/06/03 03:03:41;;;;;;;6.00;5.50;;;15.40;90.80;;;;;;5065768;28;20217;-62
2022/06/03 03:06:19;;;;;;;6.77;6.17;;;15.40;90.90;;;;;;5058708;28;20179;-63
2022/06/03 03:09:03;;;;;;;6.13;5.63;;;15.40;90.90;;;;;;5064121;28;20186;-62
2022/06/03 03:12:07;;;;;;;7.03;6.37;;;15.40;90.90;;;;;;5076873;28;20236;-62
2022/06/03 03:14:41;;;;;;;6.07;5.43;;;15.40;90.90;;;;;;5058067;28;20194;-62
2022/06/03 03:17:32;;;;;;;7.43;6.40;;;15.40;90.90;;;;;;5069687;28;20189;-62
2022/06/03 03:20:29;;;;;;;7.67;6.67;;;15.40;90.90;;;;;;5056328;28;20187;-62
2022/06/03 03:23:22;;;;;;;6.93;6.33;;;15.30;91.00;;;;;;5060744;28;20198;-62
2022/06/03 03:26:24;;;;;;;7.57;6.97;;;15.40;91.10;;;;;;5061602;28;20187;-62
2022/06/03 03:29:01;;;;;;;7.67;6.97;;;15.40;91.20;;;;;;5057575;28;20182;-62
2022/06/03 03:31:51;;;;;;;8.97;8.07;;;15.40;91.20;;;;;;5065801;28;20210;-62
2022/06/03 03:34:38;;;;;;;8.90;8.13;;;15.40;91.40;;;;;;5076709;28;20204;-62
2022/06/03 03:37:21;;;;;;;9.53;8.43;;;15.50;91.40;;;;;;5074060;28;20196;-62
2022/06/03 03:40:08;;;;;;;8.23;7.43;;;15.50;91.40;;;;;;5060882;28;20198;-62
2022/06/03 03:42:45;;;;;;;9.93;8.10;;;15.50;91.40;;;;;;5067674;28;20238;-62
2022/06/03 03:46:00;;;;;;;8.80;8.10;;;15.50;91.30;;;;;;5078120;28;20197;-62
2022/06/03 03:48:52;;;;;;;9.47;8.07;;;15.50;91.30;;;;;;5071821;28;20182;-61
2022/06/03 03:51:30;;;;;;;8.10;7.47;;;15.50;91.20;;;;;;5073912;28;20206;-61
2022/06/03 03:54:24;;;;;;;8.73;7.93;;;15.50;91.20;;;;;;5072796;28;20194;-62
2022/06/03 03:57:25;;;;;;;8.80;8.10;;;15.50;91.10;;;;;;5062959;28;20205;-62
2022/06/03 04:00:14;;;;;;;9.80;7.70;;;15.40;91.00;;;;;;5071184;28;20185;-62
2022/06/03 04:03:09;;;;;;;7.60;7.00;;;15.40;91.00;;;;;;5069922;28;20182;-61
2022/06/03 04:06:03;;;;;;;9.63;7.13;;;15.30;91.00;;;;;;5076792;28;20187;-61
2022/06/03 04:08:51;;;;;;;6.77;6.17;;;15.30;90.90;;;;;;5056480;28;20297;-62
2022/06/03 04:11:49;;;;;;;7.33;6.63;;;15.30;90.90;;;;;;5059418;28;20206;-62
2022/06/03 04:14:53;;;;;;;7.20;6.50;;;15.30;90.90;;;;;;5062534;28;20196;-60
2022/06/03 04:17:47;;;;;;;7.70;7.00;;;15.30;90.90;;;;;;5050386;28;20201;-61
2022/06/03 04:20:34;;;;;;;7.93;7.23;;;15.30;91.00;;;;;;5058158;28;20209;-61
2022/06/03 04:23:22;;;;;;;11.30;8.50;;;15.40;91.10;;;;;;5061540;28;20697;-61
2022/06/03 04:26:23;;;;;;;9.63;7.63;;;15.40;91.00;;;;;;5064213;28;20313;-61
2022/06/03 04:28:48;;;;;;;8.10;7.40;;;15.40;91.00;;;;;;5013912;28;20206;-61
2022/06/03 04:31:32;;;;;;;8.80;8.00;;;15.40;91.00;;;;;;5048479;28;20225;-61
2022/06/03 04:34:28;;;;;;;7.73;7.13;;;15.40;91.10;;;;;;5075594;28;20193;-61
2022/06/03 04:37:26;;;;;;;7.43;6.83;;;15.50;91.20;;;;;;5065604;28;20193;-61
2022/06/03 04:40:07;;;;;;;7.20;6.60;;;15.50;91.20;;;;;;5065604;28;20189;-61
2022/06/03 04:43:17;;;;;;;10.17;7.00;;;15.50;91.20;;;;;;5065307;28;20232;-61
2022/06/03 04:46:17;;;;;;;9.03;8.23;;;15.50;91.20;;;;;;5073853;28;20191;-61
2022/06/03 04:49:24;;;;;;;8.17;7.37;;;15.60;91.30;;;;;;5065577;28;20186;-60
2022/06/03 04:52:07;;;;;;;8.80;8.00;;;15.60;91.30;;;;;;4991147;28;20215;-61
2022/06/03 04:55:00;;;;;;;10.23;9.23;;;15.60;91.30;;;;;;5009770;28;20196;-61
2022/06/03 04:57:57;;;;;;;10.90;9.87;;;15.70;91.40;;;;;;5047563;28;20301;-61
2022/06/03 05:00:31;;;;;;;10.73;9.63;;;15.70;91.40;;;;;;5060286;28;20201;-61
2022/06/03 05:03:20;;;;;;;11.57;10.47;;;15.70;91.50;;;;;;5068906;28;20201;-61
2022/06/03 05:06:07;;;;;;;10.77;9.83;;;15.80;91.60;;;;;;5080606;28;20193;-61
2022/06/03 05:09:11;;;;;;;10.27;9.33;;;15.80;91.60;;;;;;5065707;28;20210;-60
2022/06/03 05:12:10;;;;;;;10.50;8.93;;;15.90;91.60;;;;;;5064814;28;20209;-61
2022/06/03 05:14:51;;;;;;;12.73;10.63;;;15.90;91.70;;;;;;5059808;28;20190;-61
2022/06/03 05:17:36;;;;;;;10.80;9.77;;;15.90;91.90;;;;;;5077921;28;20240;-61
2022/06/03 05:20:05;;;;;;;9.40;8.60;;;16.00;91.90;;;;;;5062895;28;20262;-61
2022/06/03 05:22:46;;;;;;;10.30;9.30;;;16.10;91.80;;;;;;5067738;28;20228;-61
2022/06/03 05:25:42;;;;;;;10.47;9.53;;;16.10;91.80;;;;;;5065918;28;20182;-61
2022/06/03 05:28:21;;;;;;;9.60;8.77;;;16.10;91.70;;;;;;5059315;28;20194;-61
2022/06/03 05:31:31;;;;;;;11.43;10.23;;;16.20;91.70;;;;;;5059690;28;20217;-61
2022/06/03 05:34:10;;;;;;;10.07;9.07;;;16.20;91.70;;;;;;5055989;28;20189;-62
2022/06/03 05:37:01;;;;;;;12.13;10.87;;;16.20;91.70;;;;;;5055449;28;20205;-62
2022/06/03 05:39:47;;;;;;;9.93;8.93;;;16.20;91.70;;;;;;5079007;28;20193;-62
2022/06/03 05:42:41;;;;;;;11.00;9.93;;;16.30;91.70;;;;;;5052324;28;20206;-62
2022/06/03 05:45:28;;;;;;;11.50;10.50;;;16.30;91.60;;;;;;5023719;28;20227;-62
2022/06/03 05:48:03;;;;;;;12.83;11.63;;;16.30;91.70;;;;;;5055872;28;20194;-62
2022/06/03 05:50:29;;;;;;;13.07;11.73;;;16.30;91.70;;;;;;5059564;28;20213;-62
2022/06/03 05:53:03;;;;;;;11.77;10.67;;;16.40;91.70;;;;;;5054864;28;20186;-62
2022/06/03 05:55:51;;;;;;;11.23;10.23;;;16.40;91.70;;;;;;5086744;28;20255;-62
2022/06/03 05:58:31;;;;;;;12.20;11.00;;;16.40;91.70;;;;;;5069196;28;20185;-62
2022/06/03 06:01:13;;;;;;;12.20;11.10;;;16.50;91.80;;;;;;5085446;28;20193;-62
2022/06/03 06:03:54;;;;;;;11.10;10.10;;;16.60;91.80;;;;;;5086010;28;20188;-62
2022/06/03 06:06:44;;;;;;;12.23;10.90;;;16.60;91.80;;;;;;5068163;28;20198;-62
2022/06/03 06:09:21;;;;;;;11.17;10.17;;;16.60;91.80;;;;;;5072389;28;20189;-62
2022/06/03 06:11:47;;;;;;;12.70;10.70;;;16.70;91.80;;;;;;5058591;28;20413;-62
2022/06/03 06:14:44;;;;;;;13.30;10.67;;;16.80;91.70;;;;;;5066050;28;20191;-62
2022/06/03 06:17:45;;;;;;;11.03;10.13;;;16.80;91.70;;;;;;5046983;28;20197;-62
2022/06/03 06:20:29;;;;;;;10.73;9.73;;;16.80;91.70;;;;;;5085780;28;20195;-62
2022/06/03 06:23:03;;;;;;;11.30;10.40;;;16.90;91.70;;;;;;5083238;28;20175;-62
2022/06/03 06:25:39;;;;;;;10.67;9.67;;;16.90;91.60;;;;;;5067423;28;20181;-62
2022/06/03 06:28:24;;;;;;;10.03;9.13;;;17.00;91.60;;;;;;5058297;28;20193;-62
2022/06/03 06:31:08;;;;;;;10.87;9.77;;;17.00;91.60;;;;;;5058498;28;20202;-62
2022/06/03 06:33:56;;;;;;;10.40;9.40;;;17.10;91.50;;;;;;5068460;28;20185;-61
2022/06/03 06:36:50;;;;;;;11.13;9.83;;;17.20;91.50;;;;;;5057593;28;20185;-62
2022/06/03 06:39:53;;;;;;;9.70;8.80;;;17.30;91.50;;;;;;5081515;28;20187;-62
2022/06/03 06:42:19;;;;;;;10.23;9.23;;;17.30;91.50;;;;;;5073225;28;20324;-62
2022/06/03 06:45:12;;;;;;;10.67;9.57;;;17.30;91.10;;;;;;5066432;28;20284;-62
2022/06/03 06:47:45;;;;;;;9.43;8.53;;;17.40;91.00;;;;;;5069317;28;20195;-62
2022/06/03 06:50:17;;;;;;;7.67;7.07;;;17.50;90.70;;;;;;5080348;28;20197;-62
2022/06/03 06:52:57;;;;;;;8.93;8.13;;;17.70;88.80;;;;;;5069724;28;20189;-62
2022/06/03 06:55:42;;;;;;;8.00;7.40;;;17.90;88.70;;;;;;5070956;28;20182;-62
2022/06/03 06:58:33;;;;;;;7.93;7.23;;;17.90;88.60;;;;;;5063451;28;20255;-62
2022/06/03 07:01:02;;;;;;;8.27;7.47;;;18.00;88.90;;;;;;5063449;28;20190;-62
2022/06/03 07:03:57;;;;;;;7.80;7.20;;;18.10;89.00;;;;;;5053277;28;20217;-61
2022/06/03 07:06:49;;;;;;;7.57;6.97;;;18.10;89.30;;;;;;5055181;28;20225;-62
2022/06/03 07:09:37;;;;;;;7.10;6.50;;;18.20;89.40;;;;;;5057404;28;20190;-62
2022/06/03 07:12:17;;;;;;;7.07;6.53;;;18.20;89.00;;;;;;5085589;28;20226;-62
2022/06/03 07:14:56;;;;;;;6.97;6.37;;;18.30;89.20;;;;;;5072378;28;20235;-62
2022/06/03 07:20:39;;;;;;;6.70;6.10;;;18.30;88.50;;;;;;5053256;28;20212;-62
2022/06/03 07:23:22;;;;;;;7.03;6.47;;;18.40;88.20;;;;;;5066266;28;20193;-62
2022/06/03 07:25:56;;;;;;;7.57;6.93;;;18.40;87.60;;;;;;5063966;28;20205;-61
2022/06/03 07:28:57;;;;;;;7.17;6.50;;;18.50;87.00;;;;;;5056986;28;20194;-62
2022/06/03 07:31:34;;;;;;;6.23;5.73;;;18.50;87.40;;;;;;4994080;28;20223;-62
2022/06/03 07:34:18;;;;;;;5.63;5.13;;;18.60;87.90;;;;;;5051837;28;20296;-62
2022/06/03 07:36:47;;;;;;;6.37;5.87;;;18.60;88.00;;;;;;5080414;28;20192;-62
2022/06/03 07:39:50;;;;;;;5.77;5.27;;;18.60;88.00;;;;;;5070425;28;20190;-62
2022/06/03 07:42:18;;;;;;;6.77;6.17;;;18.70;88.10;;;;;;5067485;28;20189;-62
2022/06/03 07:44:53;;;;;;;6.13;5.53;;;18.70;88.30;;;;;;5060100;28;20201;-62
2022/06/03 07:47:20;;;;;;;6.47;5.87;;;18.80;87.70;;;;;;5059267;28;20189;-62
2022/06/03 07:50:07;;;;;;;6.33;5.83;;;18.80;87.90;;;;;;5066885;28;20193;-62
2022/06/03 07:52:46;;;;;;;6.03;5.40;;;18.90;87.50;;;;;;5070106;28;20208;-61
2022/06/03 07:55:16;;;;;;;6.20;5.70;;;18.90;87.60;;;;;;5057784;28;20186;-62
2022/06/03 07:57:52;;;;;;;6.50;6.00;;;19.00;87.70;;;;;;5060258;28;20189;-62
2022/06/03 08:00:20;;;;;;;6.20;5.70;;;19.00;83.70;;;;;;5071986;28;20254;-62
2022/06/03 08:02:46;;;;;;;5.27;4.77;;;19.00;82.70;;;;;;5070111;28;20281;-62
2022/06/03 08:05:18;;;;;;;6.90;6.20;;;19.10;83.90;;;;;;5038788;28;20293;-61
2022/06/03 08:11:10;;;;;;;5.57;5.03;;;19.30;84.10;;;;;;5059769;28;20216;-62
2022/06/03 08:13:41;;;;;;;5.93;5.43;;;19.40;82.60;;;;;;5044898;28;20201;-61
2022/06/03 08:16:35;;;;;;;5.87;5.27;;;19.50;81.90;;;;;;5061417;28;20181;-62
2022/06/03 08:19:24;;;;;;;5.47;5.00;;;19.50;82.70;;;;;;5072856;28;20211;-61
2022/06/03 08:21:52;;;;;;;5.10;4.70;;;19.60;82.00;;;;;;5051219;28;20195;-62
2022/06/03 08:24:30;;;;;;;5.63;4.90;;;19.80;81.10;;;;;;5059272;28;20198;-62
2022/06/03 08:27:06;;;;;;;5.33;4.83;;;19.80;80.40;;;;;;5068959;28;20200;-62
2022/06/03 08:29:41;;;;;;;5.53;5.07;;;19.90;79.80;;;;;;5077747;28;20190;-62
2022/06/03 08:32:29;;;;;;;5.40;4.97;;;19.90;80.40;;;;;;5062679;28;20213;-61
2022/06/03 08:34:59;;;;;;;4.63;4.27;;;20.00;81.20;;;;;;5068668;28;20197;-61
2022/06/03 08:37:40;;;;;;;4.87;4.47;;;20.00;81.90;;;;;;5067926;28;20217;-61
2022/06/03 08:40:44;;;;;;;5.23;4.80;;;20.10;78.50;;;;;;5071693;28;20190;-61
2022/06/03 08:43:26;;;;;;;4.70;4.30;;;20.20;76.30;;;;;;5068524;28;20234;-61
2022/06/03 08:46:01;;;;;;;4.40;4.10;;;20.30;78.40;;;;;;5051598;28;20248;-61
2022/06/03 08:48:39;;;;;;;5.27;4.73;;;20.30;80.00;;;;;;5052721;28;20224;-61
2022/06/03 08:51:11;;;;;;;4.83;4.43;;;20.30;80.30;;;;;;5068575;28;20248;-61
2022/06/03 08:54:06;;;;;;;4.90;4.50;;;20.30;80.70;;;;;;5079813;28;20186;-61
2022/06/03 08:56:39;;;;;;;5.97;3.87;;;20.30;78.60;;;;;;5069212;28;20197;-62
2022/06/03 08:59:14;;;;;;;4.60;4.20;;;20.50;74.90;;;;;;5060798;28;20243;-61
2022/06/03 09:01:55;;;;;;;4.00;3.67;;;20.60;75.40;;;;;;5058337;28;20178;-61
2022/06/03 09:04:21;;;;;;;4.13;3.70;;;20.80;75.60;;;;;;5069101;28;20304;-61
2022/06/03 09:06:50;;;;;;;4.23;3.83;;;20.80;73.50;;;;;;5059941;28;20270;-61
2022/06/03 09:09:26;;;;;;;3.83;3.53;;;20.90;73.20;;;;;;5061826;28;20189;-61
2022/06/03 09:12:11;;;;;;;4.50;4.10;;;21.10;75.20;;;;;;5067088;28;20209;-61
2022/06/03 09:14:41;;;;;;;4.33;4.00;;;21.20;73.70;;;;;;5063650;28;20177;-61
2022/06/03 09:17:33;;;;;;;4.07;3.73;;;21.30;73.70;;;;;;5063805;28;20186;-61
2022/06/03 09:20:04;;;;;;;5.90;3.90;;;21.40;75.70;;;;;;5058372;28;20190;-61
2022/06/03 09:22:34;;;;;;;4.23;3.93;;;21.60;74.80;;;;;;5067039;28;20220;-61
2022/06/03 09:25:03;;;;;;;4.43;4.00;;;21.60;75.10;;;;;;5061820;28;20183;-61
2022/06/03 09:27:30;;;;;;;3.87;3.57;;;21.80;74.00;;;;;;5063395;28;20219;-61
2022/06/03 09:30:00;;;;;;;4.33;3.93;;;21.90;74.70;;;;;;5064477;28;20205;-61
2022/06/03 09:32:27;;;;;;;4.63;4.30;;;22.00;74.50;;;;;;5049549;28;20210;-61
2022/06/03 09:35:01;;;;;;;3.93;3.63;;;22.10;74.60;;;;;;5061209;28;20250;-61
2022/06/03 09:37:33;;;;;;;4.67;4.27;;;22.20;73.70;;;;;;5057814;28;20284;-61
2022/06/03 09:40:01;;;;;;;4.50;4.10;;;22.40;75.20;;;;;;5071215;28;20209;-61
2022/06/03 09:42:30;;;;;;;4.03;3.73;;;22.40;74.30;;;;;;5070691;28;20232;-61
2022/06/03 09:44:59;;;;;;;3.57;3.37;;;22.50;71.60;;;;;;5074486;28;20197;-61
2022/06/03 09:47:25;;;;;;;5.40;4.27;;;22.60;68.20;;;;;;5072495;28;20197;-61
2022/06/03 09:49:52;;;;;;;3.70;3.40;;;22.60;68.30;;;;;;5072297;28;20194;-61
2022/06/03 09:52:27;;;;;;;3.90;3.60;;;22.70;66.70;;;;;;5054008;28;20256;-61
2022/06/03 09:54:54;;;;;;;5.90;3.63;;;22.80;66.80;;;;;;5068840;28;20205;-61
2022/06/03 09:57:28;;;;;;;4.13;3.83;;;22.80;68.80;;;;;;5065193;28;20193;-61
2022/06/03 10:00:30;;;;;;;4.07;3.67;;;22.90;68.40;;;;;;5063384;28;20190;-61
2022/06/03 10:02:58;;;;;;;4.17;3.77;;;23.00;68.40;;;;;;5063815;28;20197;-61
2022/06/03 10:05:24;;;;;;;4.20;3.90;;;23.20;69.60;;;;;;5068841;28;20289;-61
2022/06/03 10:08:05;;;;;;;4.50;4.20;;;23.20;69.00;;;;;;5063606;28;20296;-61
2022/06/03 10:13:17;;;;;;;4.30;3.93;;;23.30;66.40;;;;;;5056790;28;20201;-61
2022/06/03 10:15:50;;;;;;;3.83;3.43;;;23.40;67.60;;;;;;5059569;28;20186;-61
2022/06/03 10:18:44;;;;;;;3.97;3.67;;;23.40;68.30;;;;;;5055337;28;20221;-61
2022/06/03 10:21:14;;;;;;;4.57;4.17;;;23.50;65.10;;;;;;5071233;28;20284;-61
2022/06/03 10:23:52;;;;;;;6.50;4.20;;;23.50;66.40;;;;;;5072707;28;20208;-61
2022/06/03 10:26:24;;;;;;;5.43;3.77;;;23.70;64.50;;;;;;5066101;28;20212;-61
2022/06/03 10:28:52;;;;;;;4.27;3.93;;;23.80;63.20;;;;;;5080821;28;20201;-61
2022/06/03 10:31:29;;;;;;;4.73;4.07;;;23.90;61.80;;;;;;5072882;28;20205;-61
2022/06/03 10:34:04;;;;;;;4.07;3.77;;;24.10;63.20;;;;;;5062383;28;20192;-61
2022/06/03 10:36:45;;;;;;;5.27;3.80;;;24.20;64.00;;;;;;5070847;28;20207;-61
2022/06/03 10:39:16;;;;;;;3.67;3.37;;;24.20;61.50;;;;;;5066135;28;20194;-61
2022/06/03 10:41:50;;;;;;;3.83;3.53;;;24.30;63.70;;;;;;5057129;28;20216;-61
2022/06/03 10:44:23;;;;;;;4.73;3.63;;;24.40;64.70;;;;;;5056355;28;20240;-61
2022/06/03 10:47:19;;;;;;;3.63;3.43;;;24.50;63.30;;;;;;5060004;28;20213;-61
2022/06/03 10:49:55;;;;;;;4.70;4.30;;;24.70;64.00;;;;;;5064451;28;20197;-61
2022/06/03 11:01:06;;;;;;;4.20;3.90;;;25.50;62.00;;;;;;5062878;28;20201;-61
2022/06/03 11:03:35;;;;;;;4.07;3.77;;;25.60;62.40;;;;;;5054011;28;20193;-62
2022/06/03 11:06:10;;;;;;;3.90;3.60;;;25.70;61.80;;;;;;5066694;28;20248;-61
2022/06/03 11:08:46;;;;;;;4.07;3.70;;;25.70;62.70;;;;;;5081728;28;20192;-61
2022/06/03 11:11:11;;;;;;;4.73;3.97;;;25.80;61.60;;;;;;5064632;28;20227;-61
2022/06/03 11:13:39;;;;;;;4.20;3.90;;;25.70;58.20;;;;;;5060047;28;20280;-61
2022/06/03 11:16:25;;;;;;;4.50;4.20;;;25.70;61.00;;;;;;5059496;28;20190;-61
2022/06/03 11:18:51;;;;;;;5.40;3.73;;;25.70;61.10;;;;;;5058608;28;20179;-62
2022/06/03 11:21:28;;;;;;;4.77;4.40;;;25.80;62.10;;;;;;5056420;28;20190;-62
2022/06/03 11:23:57;;;;;;;4.47;4.07;;;25.80;61.80;;;;;;5062535;28;20203;-61
2022/06/03 11:26:31;;;;;;;4.57;4.17;;;25.70;59.90;;;;;;5066306;28;20281;-62
2022/06/03 11:29:08;;;;;;;4.53;4.13;;;25.80;60.80;;;;;;5061268;28;20269;-61
2022/06/03 11:31:39;;;;;;;4.10;3.80;;;25.70;59.40;;;;;;5059923;28;20194;-61
2022/06/03 11:34:34;;;;;;;4.30;3.90;;;25.70;61.10;;;;;;5070492;28;20187;-62
2022/06/03 11:37:20;;;;;;;4.53;4.13;;;25.70;61.40;;;;;;5065126;28;20221;-62
2022/06/03 11:40:06;;;;;;;4.50;4.10;;;25.80;61.40;;;;;;5058252;28;20186;-62
2022/06/03 11:42:51;;;;;;;4.50;4.10;;;25.90;61.70;;;;;;5069689;28;20367;-62
2022/06/03 11:45:25;;;;;;;4.70;4.30;;;26.10;60.20;;;;;;5060105;28;20289;-62
2022/06/03 11:47:56;;;;;;;5.47;4.20;;;26.30;57.60;;;;;;5058594;28;20280;-61
2022/06/03 11:50:28;;;;;;;5.43;4.37;;;26.60;58.90;;;;;;5061628;28;20182;-62
2022/06/03 11:52:55;;;;;;;4.33;4.03;;;26.70;60.30;;;;;;5067625;28;20173;-61
2022/06/03 11:55:25;;;;;;;5.00;4.40;;;26.80;58.60;;;;;;5050184;28;20225;-62
2022/06/03 11:58:08;;;;;;;4.60;4.20;;;26.80;59.10;;;;;;5063269;28;20260;-62
2022/06/03 12:00:44;;;;;;;4.40;4.00;;;26.70;57.90;;;;;;5070655;28;20241;-62
2022/06/03 12:03:37;;;;;;;5.17;4.77;;;26.60;60.30;;;;;;5070436;28;20231;-63
2022/06/03 12:06:10;;;;;;;5.30;4.90;;;26.40;58.80;;;;;;5066923;28;20285;-62
2022/06/03 12:08:55;;;;;;;6.00;4.67;;;26.30;60.10;;;;;;5068432;28;20185;-62
2022/06/03 12:14:38;;;;;;;5.17;4.47;;;26.20;61.60;;;;;;5068331;28;20228;-62
2022/06/03 12:17:10;;;;;;;5.17;4.77;;;26.00;59.90;;;;;;5048314;28;20187;-61
2022/06/03 12:19:54;;;;;;;4.60;4.20;;;25.90;62.30;;;;;;5068556;28;20269;-61
2022/06/03 12:22:19;;;;;;;5.13;4.73;;;25.80;62.70;;;;;;5072741;28;20185;-61
2022/06/03 12:24:51;;;;;;;6.70;4.80;;;25.70;64.30;;;;;;5058672;28;20182;-62
2022/06/03 12:27:23;;;;;;;5.40;4.30;;;25.60;63.90;;;;;;5067591;28;20285;-62
2022/06/03 12:30:01;;;;;;;4.93;4.43;;;25.60;65.00;;;;;;5057445;28;20246;-61
2022/06/03 12:32:29;;;;;;;6.07;5.10;;;25.60;64.10;;;;;;5064476;28;20205;-61
2022/06/03 12:35:34;;;;;;;5.30;4.90;;;25.60;62.80;;;;;;5063010;28;20181;-62
2022/06/03 12:38:21;;;;;;;4.93;4.53;;;25.70;64.00;;;;;;5028905;28;20193;-61
2022/06/03 12:40:58;;;;;;;5.00;4.60;;;25.80;65.30;;;;;;5071132;28;20185;-61
2022/06/03 12:43:46;;;;;;;5.40;4.63;;;26.00;63.30;;;;;;5073896;28;20239;-62
2022/06/03 12:46:42;;;;;;;4.33;4.03;;;26.10;62.70;;;;;;5067775;28;20194;-62
2022/06/03 12:49:23;;;;;;;4.87;4.47;;;26.20;62.00;;;;;;5072788;28;20190;-62
2022/06/03 12:52:05;;;;;;;5.60;5.00;;;26.30;62.10;;;;;;5065097;28;20292;-62
2022/06/03 12:54:34;;;;;;;5.27;4.87;;;26.30;62.60;;;;;;5066040;28;20247;-61
2022/06/03 12:57:09;;;;;;;5.00;4.60;;;26.30;62.50;;;;;;5069910;28;20192;-61
2022/06/03 12:59:48;;;;;;;6.30;5.40;;;26.30;61.60;;;;;;5068888;28;20213;-62
2022/06/03 13:02:21;;;;;;;5.77;5.27;;;26.30;61.00;;;;;;5051355;28;20238;-61
2022/06/03 13:04:53;;;;;;;7.67;4.40;;;26.30;63.20;;;;;;5066815;28;20212;-62
2022/06/03 13:07:27;;;;;;;5.43;4.97;;;26.30;61.90;;;;;;5069128;28;20192;-61
2022/06/03 13:10:11;;;;;;;5.47;4.40;;;26.20;63.40;;;;;;5069201;28;20272;-62
2022/06/03 13:12:36;;;;;;;4.73;4.33;;;26.10;63.50;;;;;;5072619;28;20209;-61
2022/06/03 13:15:26;;;;;;;4.80;4.40;;;26.00;62.20;;;;;;5066649;28;20203;-62
2022/06/03 13:17:55;;;;;;;6.67;4.43;;;25.90;63.40;;;;;;5068831;28;20182;-61
2022/06/03 13:20:39;;;;;;;5.53;5.13;;;25.90;62.40;;;;;;5069578;28;20234;-62
2022/06/03 13:23:20;;;;;;;4.30;3.97;;;25.90;63.10;;;;;;5063344;28;20217;-62
2022/06/03 13:25:47;;;;;;;5.40;4.90;;;25.90;62.80;;;;;;5067454;28;20182;-62
2022/06/03 13:28:14;;;;;;;4.60;4.20;;;26.10;64.10;;;;;;5049776;28;20192;-62
2022/06/03 13:30:40;;;;;;;4.90;4.50;;;26.20;63.40;;;;;;5067866;28;20186;-62
2022/06/03 13:33:19;;;;;;;4.97;4.57;;;26.30;60.60;;;;;;5057795;28;20189;-62
2022/06/03 13:36:08;;;;;;;6.77;4.50;;;26.30;60.70;;;;;;5059981;28;20243;-62
2022/06/03 13:38:44;;;;;;;5.20;4.40;;;26.40;61.90;;;;;;5054089;28;20213;-61
2022/06/03 13:44:37;;;;;;;5.17;4.07;;;26.60;61.40;;;;;;5063722;28;20244;-62
2022/06/03 13:47:23;;;;;;;4.43;4.00;;;26.70;62.10;;;;;;5058870;28;20257;-62
2022/06/03 13:50:03;;;;;;;4.43;4.03;;;26.70;60.60;;;;;;5056237;28;20213;-62
2022/06/03 13:52:32;;;;;;;4.50;4.10;;;26.80;60.60;;;;;;5052059;28;20213;-62
2022/06/03 13:55:13;;;;;;;5.07;4.43;;;26.90;58.80;;;;;;5059075;28;20177;-62
2022/06/03 13:57:42;;;;;;;5.40;4.10;;;27.10;59.90;;;;;;5080385;28;20186;-62
2022/06/03 14:00:21;;;;;;;4.53;3.97;;;27.30;58.00;;;;;;5058996;28;20209;-62
2022/06/03 14:02:50;;;;;;;4.60;4.20;;;27.40;58.20;;;;;;5058598;28;20186;-62
2022/06/03 14:05:33;;;;;;;4.83;4.30;;;27.50;55.30;;;;;;5058822;28;20196;-62
2022/06/03 14:08:10;;;;;;;4.40;4.00;;;27.50;54.50;;;;;;5060523;28;20190;-62
2022/06/03 14:10:57;;;;;;;4.10;3.80;;;27.60;56.90;;;;;;5070281;28;20212;-61
2022/06/03 14:13:44;;;;;;;4.47;4.17;;;27.30;56.60;;;;;;5069402;28;20240;-62
2022/06/03 14:16:20;;;;;;;3.90;3.60;;;27.20;57.30;;;;;;5054937;28;20217;-62
2022/06/03 14:19:05;;;;;;;4.20;3.80;;;27.10;58.00;;;;;;5064086;28;20359;-62
2022/06/03 14:21:39;;;;;;;4.03;3.60;;;27.00;58.80;;;;;;5076247;28;20186;-62
2022/06/03 14:24:19;;;;;;;4.97;3.70;;;26.90;60.30;;;;;;5071591;28;20242;-62
2022/06/03 14:26:56;;;;;;;3.87;3.57;;;26.80;60.90;;;;;;5061352;28;20236;-62
2022/06/03 14:29:31;;;;;;;4.93;4.00;;;26.70;60.40;;;;;;5063662;28;20214;-62